sensor_id;sensor_type;location;lat;lon;timestamp;P1;durP1;ratioP1;P2;durP2;ratioP2
3726;SDS011;1879;45.876;12.300;2023-11-21T00:00:34;40.90;;;36.77;;
3726;SDS011;1879;45.876;12.300;2023-11-21T00:03:01;41.30;;;37.10;;
3726;SDS011;1879;45.876;12.300;2023-11-21T00:05:30;41.87;;;37.60;;
3726;SDS011;1879;45.876;12.300;2023-11-21T00:07:57;42.47;;;38.17;;
3726;SDS011;1879;45.876;12.300;2023-11-21T00:10:24;42.57;;;38.27;;
3726;SDS011;1879;45.876;12.300;2023-11-21T00:12:51;41.30;;;37.37;;
3726;SDS011;1879;45.876;12.300;2023-11-21T00:15:20;39.40;;;35.50;;
3726;SDS011;1879;45.876;12.300;2023-11-21T00:17:47;40.17;;;36.37;;
3726;SDS011;1879;45.876;12.300;2023-11-21T00:20:14;41.80;;;37.67;;
3726;SDS011;1879;45.876;12.300;2023-11-21T00:22:42;36.93;;;33.23;;
3726;SDS011;1879;45.876;12.300;2023-11-21T00:25:10;39.17;;;35.27;;
3726;SDS011;1879;45.876;12.300;2023-11-21T00:27:37;37.43;;;33.60;;
3726;SDS011;1879;45.876;12.300;2023-11-21T00:30:05;37.53;;;33.80;;
3726;SDS011;1879;45.876;12.300;2023-11-21T00:32:34;34.10;;;30.90;;
3726;SDS011;1879;45.876;12.300;2023-11-21T00:35:02;35.57;;;32.17;;
3726;SDS011;1879;45.876;12.300;2023-11-21T00:37:29;35.80;;;32.27;;
3726;SDS011;1879;45.876;12.300;2023-11-21T00:39:58;34.30;;;31.20;;
3726;SDS011;1879;45.876;12.300;2023-11-21T00:42:30;34.30;;;31.03;;
3726;SDS011;1879;45.876;12.300;2023-11-21T00:44:58;32.33;;;29.03;;
3726;SDS011;1879;45.876;12.300;2023-11-21T00:47:25;33.20;;;29.97;;
3726;SDS011;1879;45.876;12.300;2023-11-21T00:49:52;28.57;;;25.80;;
3726;SDS011;1879;45.876;12.300;2023-11-21T00:52:19;28.83;;;25.90;;
3726;SDS011;1879;45.876;12.300;2023-11-21T00:54:46;26.23;;;23.60;;
3726;SDS011;1879;45.876;12.300;2023-11-21T00:57:14;24.93;;;22.63;;
3726;SDS011;1879;45.876;12.300;2023-11-21T00:59:41;26.73;;;23.90;;
3726;SDS011;1879;45.876;12.300;2023-11-21T01:02:08;25.03;;;22.40;;
3726;SDS011;1879;45.876;12.300;2023-11-21T01:04:36;24.50;;;22.13;;
3726;SDS011;1879;45.876;12.300;2023-11-21T01:07:04;31.33;;;28.33;;
3726;SDS011;1879;45.876;12.300;2023-11-21T01:09:31;32.80;;;29.30;;
3726;SDS011;1879;45.876;12.300;2023-11-21T01:11:58;32.37;;;29.27;;
3726;SDS011;1879;45.876;12.300;2023-11-21T01:14:27;30.20;;;27.37;;
3726;SDS011;1879;45.876;12.300;2023-11-21T01:16:54;29.37;;;26.43;;
3726;SDS011;1879;45.876;12.300;2023-11-21T01:19:21;24.20;;;21.97;;
3726;SDS011;1879;45.876;12.300;2023-11-21T01:21:48;21.37;;;19.00;;
3726;SDS011;1879;45.876;12.300;2023-11-21T01:24:17;23.07;;;20.97;;
3726;SDS011;1879;45.876;12.300;2023-11-21T01:26:44;24.07;;;21.77;;
3726;SDS011;1879;45.876;12.300;2023-11-21T01:29:11;27.03;;;24.40;;
3726;SDS011;1879;45.876;12.300;2023-11-21T01:31:40;27.27;;;24.77;;
3726;SDS011;1879;45.876;12.300;2023-11-21T01:34:07;27.73;;;24.93;;
3726;SDS011;1879;45.876;12.300;2023-11-21T01:36:34;25.77;;;23.40;;
3726;SDS011;1879;45.876;12.300;2023-11-21T01:39:01;22.67;;;20.23;;
3726;SDS011;1879;45.876;12.300;2023-11-21T01:41:33;28.83;;;25.17;;
3726;SDS011;1879;45.876;12.300;2023-11-21T01:44:00;28.77;;;26.23;;
3726;SDS011;1879;45.876;12.300;2023-11-21T01:46:27;30.30;;;27.30;;
3726;SDS011;1879;45.876;12.300;2023-11-21T01:48:57;25.63;;;23.27;;
3726;SDS011;1879;45.876;12.300;2023-11-21T01:51:24;27.30;;;24.47;;
3726;SDS011;1879;45.876;12.300;2023-11-21T01:53:51;25.87;;;23.30;;
3726;SDS011;1879;45.876;12.300;2023-11-21T01:56:19;26.53;;;24.03;;
3726;SDS011;1879;45.876;12.300;2023-11-21T01:58:46;26.70;;;24.00;;
3726;SDS011;1879;45.876;12.300;2023-11-21T02:01:13;24.53;;;22.23;;
3726;SDS011;1879;45.876;12.300;2023-11-21T02:03:40;26.20;;;23.67;;
3726;SDS011;1879;45.876;12.300;2023-11-21T02:06:09;25.70;;;23.30;;
3726;SDS011;1879;45.876;12.300;2023-11-21T02:08:36;23.80;;;21.60;;
3726;SDS011;1879;45.876;12.300;2023-11-21T02:11:03;23.20;;;21.13;;
3726;SDS011;1879;45.876;12.300;2023-11-21T02:13:30;23.20;;;21.20;;
3726;SDS011;1879;45.876;12.300;2023-11-21T02:15:58;23.00;;;20.93;;
3726;SDS011;1879;45.876;12.300;2023-11-21T02:18:25;21.70;;;19.67;;
3726;SDS011;1879;45.876;12.300;2023-11-21T02:20:54;20.90;;;19.00;;
3726;SDS011;1879;45.876;12.300;2023-11-21T02:23:23;22.87;;;20.30;;
3726;SDS011;1879;45.876;12.300;2023-11-21T02:25:53;22.63;;;20.53;;
3726;SDS011;1879;45.876;12.300;2023-11-21T02:28:21;21.83;;;19.63;;
3726;SDS011;1879;45.876;12.300;2023-11-21T02:30:50;21.23;;;19.33;;
3726;SDS011;1879;45.876;12.300;2023-11-21T02:33:20;22.90;;;20.50;;
3726;SDS011;1879;45.876;12.300;2023-11-21T02:35:48;23.67;;;21.37;;
3726;SDS011;1879;45.876;12.300;2023-11-21T02:38:16;23.00;;;20.90;;
3726;SDS011;1879;45.876;12.300;2023-11-21T02:40:44;21.80;;;19.80;;
3726;SDS011;1879;45.876;12.300;2023-11-21T02:43:11;22.80;;;20.70;;
3726;SDS011;1879;45.876;12.300;2023-11-21T02:45:39;23.20;;;21.00;;
3726;SDS011;1879;45.876;12.300;2023-11-21T02:48:08;23.03;;;20.93;;
3726;SDS011;1879;45.876;12.300;2023-11-21T02:50:35;24.07;;;21.77;;
3726;SDS011;1879;45.876;12.300;2023-11-21T02:53:02;24.90;;;22.70;;
3726;SDS011;1879;45.876;12.300;2023-11-21T02:55:30;25.67;;;23.10;;
3726;SDS011;1879;45.876;12.300;2023-11-21T02:58:01;24.77;;;22.37;;
3726;SDS011;1879;45.876;12.300;2023-11-21T03:00:28;23.77;;;21.57;;
3726;SDS011;1879;45.876;12.300;2023-11-21T03:02:55;24.10;;;21.93;;
3726;SDS011;1879;45.876;12.300;2023-11-21T03:05:23;25.03;;;22.53;;
3726;SDS011;1879;45.876;12.300;2023-11-21T03:07:50;24.80;;;22.50;;
3726;SDS011;1879;45.876;12.300;2023-11-21T03:10:17;23.30;;;21.00;;
3726;SDS011;1879;45.876;12.300;2023-11-21T03:12:44;24.03;;;21.83;;
3726;SDS011;1879;45.876;12.300;2023-11-21T03:15:12;25.97;;;23.17;;
3726;SDS011;1879;45.876;12.300;2023-11-21T03:17:40;24.47;;;21.00;;
3726;SDS011;1879;45.876;12.300;2023-11-21T03:20:07;24.17;;;21.73;;
3726;SDS011;1879;45.876;12.300;2023-11-21T03:22:36;22.93;;;20.83;;
3726;SDS011;1879;45.876;12.300;2023-11-21T03:25:04;24.13;;;21.80;;
3726;SDS011;1879;45.876;12.300;2023-11-21T03:27:31;25.37;;;23.17;;
3726;SDS011;1879;45.876;12.300;2023-11-21T03:29:58;26.67;;;23.77;;
3726;SDS011;1879;45.876;12.300;2023-11-21T03:32:27;23.43;;;21.33;;
3726;SDS011;1879;45.876;12.300;2023-11-21T03:34:54;22.40;;;20.10;;
3726;SDS011;1879;45.876;12.300;2023-11-21T03:37:22;22.83;;;20.90;;
3726;SDS011;1879;45.876;12.300;2023-11-21T03:39:50;21.43;;;19.57;;
3726;SDS011;1879;45.876;12.300;2023-11-21T03:42:17;20.13;;;18.40;;
3726;SDS011;1879;45.876;12.300;2023-11-21T03:44:44;19.93;;;17.93;;
3726;SDS011;1879;45.876;12.300;2023-11-21T03:47:11;20.17;;;18.37;;
3726;SDS011;1879;45.876;12.300;2023-11-21T03:49:39;18.53;;;16.83;;
3726;SDS011;1879;45.876;12.300;2023-11-21T03:52:06;20.13;;;17.97;;
3726;SDS011;1879;45.876;12.300;2023-11-21T03:54:34;19.43;;;17.60;;
3726;SDS011;1879;45.876;12.300;2023-11-21T03:57:01;17.47;;;15.87;;
3726;SDS011;1879;45.876;12.300;2023-11-21T03:59:28;17.87;;;16.20;;
3726;SDS011;1879;45.876;12.300;2023-11-21T04:01:55;18.13;;;16.47;;
3726;SDS011;1879;45.876;12.300;2023-11-21T04:04:23;19.10;;;17.40;;
3726;SDS011;1879;45.876;12.300;2023-11-21T04:06:51;18.20;;;16.50;;
3726;SDS011;1879;45.876;12.300;2023-11-21T04:09:18;18.33;;;16.63;;
3726;SDS011;1879;45.876;12.300;2023-11-21T04:11:46;17.23;;;15.07;;
3726;SDS011;1879;45.876;12.300;2023-11-21T04:14:13;15.90;;;14.50;;
3726;SDS011;1879;45.876;12.300;2023-11-21T04:16:40;16.03;;;14.53;;
3726;SDS011;1879;45.876;12.300;2023-11-21T04:19:07;15.00;;;13.50;;
3726;SDS011;1879;45.876;12.300;2023-11-21T04:21:35;14.90;;;13.50;;
3726;SDS011;1879;45.876;12.300;2023-11-21T04:24:04;14.87;;;13.27;;
3726;SDS011;1879;45.876;12.300;2023-11-21T04:26:32;15.53;;;14.13;;
3726;SDS011;1879;45.876;12.300;2023-11-21T04:28:59;16.30;;;14.73;;
3726;SDS011;1879;45.876;12.300;2023-11-21T04:31:26;14.50;;;13.07;;
3726;SDS011;1879;45.876;12.300;2023-11-21T04:33:53;14.20;;;12.90;;
3726;SDS011;1879;45.876;12.300;2023-11-21T04:36:20;17.50;;;13.07;;
3726;SDS011;1879;45.876;12.300;2023-11-21T04:38:47;13.90;;;12.43;;
3726;SDS011;1879;45.876;12.300;2023-11-21T04:41:15;15.00;;;13.60;;
3726;SDS011;1879;45.876;12.300;2023-11-21T04:43:43;15.53;;;14.03;;
3726;SDS011;1879;45.876;12.300;2023-11-21T04:46:10;16.37;;;14.83;;
3726;SDS011;1879;45.876;12.300;2023-11-21T04:48:37;14.53;;;13.30;;
3726;SDS011;1879;45.876;12.300;2023-11-21T04:51:04;14.70;;;12.37;;
3726;SDS011;1879;45.876;12.300;2023-11-21T04:53:31;15.70;;;14.03;;
3726;SDS011;1879;45.876;12.300;2023-11-21T04:55:59;14.17;;;12.90;;
3726;SDS011;1879;45.876;12.300;2023-11-21T04:58:28;14.33;;;12.90;;
3726;SDS011;1879;45.876;12.300;2023-11-21T05:00:55;11.43;;;10.33;;
3726;SDS011;1879;45.876;12.300;2023-11-21T05:03:23;12.37;;;11.20;;
3726;SDS011;1879;45.876;12.300;2023-11-21T05:05:51;13.10;;;11.80;;
3726;SDS011;1879;45.876;12.300;2023-11-21T05:08:18;13.10;;;11.43;;
3726;SDS011;1879;45.876;12.300;2023-11-21T05:10:45;12.33;;;11.13;;
3726;SDS011;1879;45.876;12.300;2023-11-21T05:13:13;11.80;;;10.60;;
3726;SDS011;1879;45.876;12.300;2023-11-21T05:15:43;11.80;;;10.60;;
3726;SDS011;1879;45.876;12.300;2023-11-21T05:18:10;11.90;;;10.90;;
3726;SDS011;1879;45.876;12.300;2023-11-21T05:20:38;11.63;;;10.37;;
3726;SDS011;1879;45.876;12.300;2023-11-21T05:23:06;11.70;;;10.70;;
3726;SDS011;1879;45.876;12.300;2023-11-21T05:25:33;12.27;;;11.20;;
3726;SDS011;1879;45.876;12.300;2023-11-21T05:28:01;13.10;;;11.80;;
3726;SDS011;1879;45.876;12.300;2023-11-21T05:30:29;12.50;;;11.40;;
3726;SDS011;1879;45.876;12.300;2023-11-21T05:32:57;12.37;;;11.17;;
3726;SDS011;1879;45.876;12.300;2023-11-21T05:35:24;13.50;;;10.90;;
3726;SDS011;1879;45.876;12.300;2023-11-21T05:37:51;13.40;;;12.30;;
3726;SDS011;1879;45.876;12.300;2023-11-21T05:40:19;13.07;;;11.97;;
3726;SDS011;1879;45.876;12.300;2023-11-21T05:42:47;15.13;;;13.77;;
3726;SDS011;1879;45.876;12.300;2023-11-21T05:45:16;14.23;;;12.73;;
3726;SDS011;1879;45.876;12.300;2023-11-21T05:47:44;14.30;;;12.90;;
3726;SDS011;1879;45.876;12.300;2023-11-21T05:50:13;13.23;;;12.10;;
3726;SDS011;1879;45.876;12.300;2023-11-21T05:52:42;12.13;;;11.03;;
3726;SDS011;1879;45.876;12.300;2023-11-21T05:55:10;11.00;;;10.00;;
3726;SDS011;1879;45.876;12.300;2023-11-21T05:57:38;11.33;;;10.33;;
3726;SDS011;1879;45.876;12.300;2023-11-21T06:00:07;11.77;;;10.10;;
3726;SDS011;1879;45.876;12.300;2023-11-21T06:02:43;11.90;;;10.70;;
3726;SDS011;1879;45.876;12.300;2023-11-21T06:05:12;13.00;;;11.63;;
3726;SDS011;1879;45.876;12.300;2023-11-21T06:07:39;16.80;;;15.20;;
3726;SDS011;1879;45.876;12.300;2023-11-21T06:10:07;17.67;;;16.03;;
3726;SDS011;1879;45.876;12.300;2023-11-21T06:12:36;14.50;;;13.20;;
3726;SDS011;1879;45.876;12.300;2023-11-21T06:15:03;15.80;;;14.30;;
3726;SDS011;1879;45.876;12.300;2023-11-21T06:17:33;19.87;;;18.07;;
3726;SDS011;1879;45.876;12.300;2023-11-21T06:20:01;16.80;;;15.40;;
3726;SDS011;1879;45.876;12.300;2023-11-21T06:22:36;23.90;;;21.70;;
3726;SDS011;1879;45.876;12.300;2023-11-21T06:25:03;20.07;;;18.13;;
3726;SDS011;1879;45.876;12.300;2023-11-21T06:27:32;24.83;;;22.53;;
3726;SDS011;1879;45.876;12.300;2023-11-21T06:30:01;25.40;;;22.73;;
3726;SDS011;1879;45.876;12.300;2023-11-21T06:32:28;16.53;;;14.83;;
3726;SDS011;1879;45.876;12.300;2023-11-21T06:34:56;15.70;;;13.07;;
3726;SDS011;1879;45.876;12.300;2023-11-21T06:37:24;14.03;;;12.67;;
3726;SDS011;1879;45.876;12.300;2023-11-21T06:39:53;14.37;;;13.07;;
3726;SDS011;1879;45.876;12.300;2023-11-21T06:42:21;15.20;;;13.70;;
3726;SDS011;1879;45.876;12.300;2023-11-21T06:44:49;23.10;;;20.80;;
3726;SDS011;1879;45.876;12.300;2023-11-21T06:47:16;19.07;;;17.33;;
3726;SDS011;1879;45.876;12.300;2023-11-21T06:49:45;17.20;;;15.70;;
3726;SDS011;1879;45.876;12.300;2023-11-21T06:52:13;33.63;;;30.47;;
3726;SDS011;1879;45.876;12.300;2023-11-21T06:54:40;49.33;;;44.37;;
3726;SDS011;1879;45.876;12.300;2023-11-21T06:57:08;32.00;;;28.90;;
3726;SDS011;1879;45.876;12.300;2023-11-21T06:59:35;21.17;;;19.17;;
3726;SDS011;1879;45.876;12.300;2023-11-21T07:02:03;22.23;;;20.23;;
3726;SDS011;1879;45.876;12.300;2023-11-21T07:04:31;19.97;;;18.27;;
3726;SDS011;1879;45.876;12.300;2023-11-21T07:06:58;20.47;;;18.40;;
3726;SDS011;1879;45.876;12.300;2023-11-21T07:09:25;23.27;;;20.87;;
3726;SDS011;1879;45.876;12.300;2023-11-21T07:11:52;17.40;;;15.90;;
3726;SDS011;1879;45.876;12.300;2023-11-21T07:14:21;14.50;;;13.10;;
3726;SDS011;1879;45.876;12.300;2023-11-21T07:16:48;14.80;;;13.40;;
3726;SDS011;1879;45.876;12.300;2023-11-21T07:19:17;13.40;;;12.20;;
3726;SDS011;1879;45.876;12.300;2023-11-21T07:21:44;13.30;;;12.00;;
3726;SDS011;1879;45.876;12.300;2023-11-21T07:24:11;13.30;;;11.50;;
3726;SDS011;1879;45.876;12.300;2023-11-21T07:26:38;11.60;;;10.40;;
3726;SDS011;1879;45.876;12.300;2023-11-21T07:29:06;11.60;;;10.37;;
3726;SDS011;1879;45.876;12.300;2023-11-21T07:31:34;11.70;;;9.70;;
3726;SDS011;1879;45.876;12.300;2023-11-21T07:34:01;11.13;;;10.03;;
3726;SDS011;1879;45.876;12.300;2023-11-21T07:36:28;12.80;;;9.97;;
3726;SDS011;1879;45.876;12.300;2023-11-21T07:38:55;12.37;;;10.13;;
3726;SDS011;1879;45.876;12.300;2023-11-21T07:41:22;15.70;;;10.00;;
3726;SDS011;1879;45.876;12.300;2023-11-21T07:43:49;9.37;;;8.47;;
3726;SDS011;1879;45.876;12.300;2023-11-21T07:46:16;10.60;;;9.60;;
3726;SDS011;1879;45.876;12.300;2023-11-21T07:48:45;10.07;;;9.07;;
3726;SDS011;1879;45.876;12.300;2023-11-21T07:51:12;10.73;;;9.67;;
3726;SDS011;1879;45.876;12.300;2023-11-21T07:53:39;12.10;;;10.90;;
3726;SDS011;1879;45.876;12.300;2023-11-21T07:56:07;14.13;;;12.83;;
3726;SDS011;1879;45.876;12.300;2023-11-21T07:58:35;21.10;;;15.30;;
3726;SDS011;1879;45.876;12.300;2023-11-21T08:01:02;17.13;;;15.53;;
3726;SDS011;1879;45.876;12.300;2023-11-21T08:03:30;13.70;;;10.93;;
3726;SDS011;1879;45.876;12.300;2023-11-21T08:05:58;10.27;;;9.37;;
3726;SDS011;1879;45.876;12.300;2023-11-21T08:08:28;11.57;;;10.37;;
3726;SDS011;1879;45.876;12.300;2023-11-21T08:10:55;14.33;;;11.73;;
3726;SDS011;1879;45.876;12.300;2023-11-21T08:13:22;13.57;;;12.27;;
3726;SDS011;1879;45.876;12.300;2023-11-21T08:15:49;13.90;;;12.20;;
3726;SDS011;1879;45.876;12.300;2023-11-21T08:18:16;17.20;;;12.33;;
3726;SDS011;1879;45.876;12.300;2023-11-21T08:20:44;14.00;;;12.63;;
3726;SDS011;1879;45.876;12.300;2023-11-21T08:23:14;16.27;;;14.43;;
3726;SDS011;1879;45.876;12.300;2023-11-21T08:25:42;16.30;;;13.10;;
3726;SDS011;1879;45.876;12.300;2023-11-21T08:28:10;18.60;;;15.77;;
3726;SDS011;1879;45.876;12.300;2023-11-21T08:30:37;19.20;;;17.30;;
3726;SDS011;1879;45.876;12.300;2023-11-21T08:33:04;29.83;;;26.60;;
3726;SDS011;1879;45.876;12.300;2023-11-21T08:35:32;22.10;;;20.00;;
3726;SDS011;1879;45.876;12.300;2023-11-21T08:37:59;18.60;;;16.87;;
3726;SDS011;1879;45.876;12.300;2023-11-21T08:40:27;18.37;;;16.70;;
3726;SDS011;1879;45.876;12.300;2023-11-21T08:42:54;19.30;;;17.30;;
3726;SDS011;1879;45.876;12.300;2023-11-21T08:45:23;91.80;;;70.67;;
3726;SDS011;1879;45.876;12.300;2023-11-21T08:47:52;174.07;;;136.30;;
3726;SDS011;1879;45.876;12.300;2023-11-21T08:50:19;285.87;;;239.57;;
3726;SDS011;1879;45.876;12.300;2023-11-21T08:52:46;125.13;;;102.50;;
3726;SDS011;1879;45.876;12.300;2023-11-21T08:55:13;65.50;;;49.80;;
3726;SDS011;1879;45.876;12.300;2023-11-21T08:57:43;31.83;;;22.70;;
3726;SDS011;1879;45.876;12.300;2023-11-21T09:00:10;31.87;;;28.60;;
3726;SDS011;1879;45.876;12.300;2023-11-21T09:02:38;24.83;;;21.00;;
3726;SDS011;1879;45.876;12.300;2023-11-21T09:05:07;54.30;;;40.43;;
3726;SDS011;1879;45.876;12.300;2023-11-21T09:07:34;46.07;;;40.90;;
3726;SDS011;1879;45.876;12.300;2023-11-21T09:10:01;34.33;;;29.13;;
3726;SDS011;1879;45.876;12.300;2023-11-21T09:12:28;27.03;;;24.07;;
3726;SDS011;1879;45.876;12.300;2023-11-21T09:14:59;24.70;;;19.90;;
3726;SDS011;1879;45.876;12.300;2023-11-21T09:17:26;15.67;;;14.00;;
3726;SDS011;1879;45.876;12.300;2023-11-21T09:19:53;12.30;;;11.00;;
3726;SDS011;1879;45.876;12.300;2023-11-21T09:22:20;12.33;;;11.13;;
3726;SDS011;1879;45.876;12.300;2023-11-21T09:24:47;10.80;;;9.80;;
3726;SDS011;1879;45.876;12.300;2023-11-21T09:27:14;10.33;;;9.23;;
3726;SDS011;1879;45.876;12.300;2023-11-21T09:29:42;8.60;;;7.80;;
3726;SDS011;1879;45.876;12.300;2023-11-21T09:32:11;7.80;;;6.47;;
3726;SDS011;1879;45.876;12.300;2023-11-21T09:34:39;6.67;;;6.03;;
3726;SDS011;1879;45.876;12.300;2023-11-21T09:37:06;6.23;;;5.63;;
3726;SDS011;1879;45.876;12.300;2023-11-21T09:39:34;6.20;;;5.47;;
3726;SDS011;1879;45.876;12.300;2023-11-21T09:42:04;7.23;;;5.03;;
3726;SDS011;1879;45.876;12.300;2023-11-21T09:44:36;6.23;;;5.63;;
3726;SDS011;1879;45.876;12.300;2023-11-21T09:47:14;5.40;;;4.97;;
3726;SDS011;1879;45.876;12.300;2023-11-21T09:49:42;6.33;;;5.73;;
3726;SDS011;1879;45.876;12.300;2023-11-21T09:52:14;7.90;;;4.90;;
3726;SDS011;1879;45.876;12.300;2023-11-21T09:54:45;5.97;;;5.37;;
3726;SDS011;1879;45.876;12.300;2023-11-21T09:57:12;6.33;;;4.27;;
3726;SDS011;1879;45.876;12.300;2023-11-21T09:59:40;6.20;;;4.90;;
3726;SDS011;1879;45.876;12.300;2023-11-21T10:02:08;4.90;;;4.30;;
3726;SDS011;1879;45.876;12.300;2023-11-21T10:04:39;7.47;;;4.30;;
3726;SDS011;1879;45.876;12.300;2023-11-21T10:07:06;5.27;;;3.83;;
3726;SDS011;1879;45.876;12.300;2023-11-21T10:09:34;4.43;;;4.10;;
3726;SDS011;1879;45.876;12.300;2023-11-21T10:12:03;5.10;;;4.17;;
3726;SDS011;1879;45.876;12.300;2023-11-21T10:14:33;5.20;;;4.50;;
3726;SDS011;1879;45.876;12.300;2023-11-21T10:17:03;5.13;;;4.70;;
3726;SDS011;1879;45.876;12.300;2023-11-21T10:19:33;5.03;;;4.40;;
3726;SDS011;1879;45.876;12.300;2023-11-21T10:22:04;5.10;;;4.70;;
3726;SDS011;1879;45.876;12.300;2023-11-21T10:24:32;5.93;;;5.37;;
3726;SDS011;1879;45.876;12.300;2023-11-21T10:26:59;7.53;;;5.83;;
3726;SDS011;1879;45.876;12.300;2023-11-21T10:29:28;5.63;;;5.23;;
3726;SDS011;1879;45.876;12.300;2023-11-21T10:31:55;6.03;;;5.53;;
3726;SDS011;1879;45.876;12.300;2023-11-21T10:34:24;7.43;;;5.77;;
3726;SDS011;1879;45.876;12.300;2023-11-21T10:36:52;6.30;;;5.70;;
3726;SDS011;1879;45.876;12.300;2023-11-21T10:39:24;6.43;;;5.83;;
3726;SDS011;1879;45.876;12.300;2023-11-21T10:41:56;7.50;;;5.60;;
3726;SDS011;1879;45.876;12.300;2023-11-21T10:44:22;5.97;;;5.37;;
3726;SDS011;1879;45.876;12.300;2023-11-21T10:46:51;7.40;;;5.87;;
3726;SDS011;1879;45.876;12.300;2023-11-21T10:49:22;6.37;;;5.87;;
3726;SDS011;1879;45.876;12.300;2023-11-21T10:51:51;8.33;;;7.63;;
3726;SDS011;1879;45.876;12.300;2023-11-21T10:54:19;7.70;;;6.90;;
3726;SDS011;1879;45.876;12.300;2023-11-21T10:56:49;7.93;;;7.13;;
3726;SDS011;1879;45.876;12.300;2023-11-21T10:59:17;7.90;;;7.20;;
3726;SDS011;1879;45.876;12.300;2023-11-21T11:01:46;9.50;;;7.20;;
3726;SDS011;1879;45.876;12.300;2023-11-21T11:04:16;8.53;;;7.63;;
3726;SDS011;1879;45.876;12.300;2023-11-21T11:06:46;8.87;;;7.50;;
3726;SDS011;1879;45.876;12.300;2023-11-21T11:09:17;9.03;;;8.17;;
3726;SDS011;1879;45.876;12.300;2023-11-21T11:11:44;8.83;;;7.70;;
3726;SDS011;1879;45.876;12.300;2023-11-21T11:14:14;9.50;;;6.47;;
3726;SDS011;1879;45.876;12.300;2023-11-21T11:16:41;7.17;;;6.20;;
3726;SDS011;1879;45.876;12.300;2023-11-21T11:19:09;7.33;;;6.70;;
3726;SDS011;1879;45.876;12.300;2023-11-21T11:21:45;7.47;;;6.10;;
3726;SDS011;1879;45.876;12.300;2023-11-21T11:24:20;6.93;;;6.07;;
3726;SDS011;1879;45.876;12.300;2023-11-21T11:27:01;6.33;;;5.83;;
3726;SDS011;1879;45.876;12.300;2023-11-21T11:29:40;6.10;;;5.60;;
3726;SDS011;1879;45.876;12.300;2023-11-21T11:32:16;5.83;;;5.33;;
3726;SDS011;1879;45.876;12.300;2023-11-21T11:34:53;6.60;;;6.00;;
3726;SDS011;1879;45.876;12.300;2023-11-21T11:37:25;5.13;;;4.67;;
3726;SDS011;1879;45.876;12.300;2023-11-21T11:39:52;5.10;;;4.60;;
3726;SDS011;1879;45.876;12.300;2023-11-21T11:42:21;5.40;;;4.40;;
3726;SDS011;1879;45.876;12.300;2023-11-21T11:44:50;4.93;;;4.53;;
3726;SDS011;1879;45.876;12.300;2023-11-21T11:47:20;5.90;;;5.00;;
3726;SDS011;1879;45.876;12.300;2023-11-21T11:49:58;5.33;;;4.83;;
3726;SDS011;1879;45.876;12.300;2023-11-21T11:52:36;5.10;;;4.70;;
3726;SDS011;1879;45.876;12.300;2023-11-21T11:55:07;4.97;;;4.17;;
3726;SDS011;1879;45.876;12.300;2023-11-21T11:57:40;3.57;;;3.33;;
3726;SDS011;1879;45.876;12.300;2023-11-21T12:00:16;4.27;;;3.87;;
3726;SDS011;1879;45.876;12.300;2023-11-21T12:02:45;4.50;;;4.10;;
3726;SDS011;1879;45.876;12.300;2023-11-21T12:05:14;4.03;;;3.63;;
3726;SDS011;1879;45.876;12.300;2023-11-21T12:07:44;4.37;;;4.07;;
3726;SDS011;1879;45.876;12.300;2023-11-21T12:10:14;5.77;;;5.17;;
3726;SDS011;1879;45.876;12.300;2023-11-21T12:12:44;6.80;;;6.17;;
3726;SDS011;1879;45.876;12.300;2023-11-21T12:15:12;9.80;;;8.80;;
3726;SDS011;1879;45.876;12.300;2023-11-21T12:17:41;9.87;;;8.83;;
3726;SDS011;1879;45.876;12.300;2023-11-21T12:20:09;9.37;;;8.57;;
3726;SDS011;1879;45.876;12.300;2023-11-21T12:22:44;9.73;;;8.73;;
3726;SDS011;1879;45.876;12.300;2023-11-21T12:25:14;7.97;;;7.37;;
3726;SDS011;1879;45.876;12.300;2023-11-21T12:27:44;8.20;;;7.40;;
3726;SDS011;1879;45.876;12.300;2023-11-21T12:30:12;7.83;;;7.20;;
3726;SDS011;1879;45.876;12.300;2023-11-21T12:32:42;8.67;;;7.77;;
3726;SDS011;1879;45.876;12.300;2023-11-21T12:35:11;9.00;;;7.73;;
3726;SDS011;1879;45.876;12.300;2023-11-21T12:37:39;7.97;;;7.13;;
3726;SDS011;1879;45.876;12.300;2023-11-21T12:40:08;8.70;;;7.80;;
3726;SDS011;1879;45.876;12.300;2023-11-21T12:42:37;7.00;;;6.40;;
3726;SDS011;1879;45.876;12.300;2023-11-21T12:45:08;7.27;;;6.23;;
3726;SDS011;1879;45.876;12.300;2023-11-21T12:47:42;8.70;;;6.53;;
3726;SDS011;1879;45.876;12.300;2023-11-21T12:50:11;6.90;;;6.30;;
3726;SDS011;1879;45.876;12.300;2023-11-21T12:52:40;6.50;;;5.80;;
3726;SDS011;1879;45.876;12.300;2023-11-21T12:55:09;7.80;;;7.20;;
3726;SDS011;1879;45.876;12.300;2023-11-21T12:57:40;5.27;;;4.77;;
3726;SDS011;1879;45.876;12.300;2023-11-21T13:00:09;5.73;;;5.23;;
3726;SDS011;1879;45.876;12.300;2023-11-21T13:02:40;5.00;;;4.40;;
3726;SDS011;1879;45.876;12.300;2023-11-21T13:05:09;5.73;;;4.43;;
3726;SDS011;1879;45.876;12.300;2023-11-21T13:07:46;4.30;;;3.90;;
3726;SDS011;1879;45.876;12.300;2023-11-21T13:10:16;3.87;;;3.57;;
3726;SDS011;1879;45.876;12.300;2023-11-21T13:12:43;3.70;;;3.13;;
3726;SDS011;1879;45.876;12.300;2023-11-21T13:15:13;2.60;;;2.40;;
3726;SDS011;1879;45.876;12.300;2023-11-21T13:17:43;3.60;;;2.87;;
3726;SDS011;1879;45.876;12.300;2023-11-21T13:20:11;3.40;;;3.10;;
3726;SDS011;1879;45.876;12.300;2023-11-21T13:22:44;3.80;;;3.00;;
3726;SDS011;1879;45.876;12.300;2023-11-21T13:25:15;3.00;;;2.70;;
3726;SDS011;1879;45.876;12.300;2023-11-21T13:27:45;4.23;;;3.50;;
3726;SDS011;1879;45.876;12.300;2023-11-21T13:30:12;6.20;;;3.97;;
3726;SDS011;1879;45.876;12.300;2023-11-21T13:32:45;5.30;;;3.30;;
3726;SDS011;1879;45.876;12.300;2023-11-21T13:35:14;3.90;;;3.60;;
3726;SDS011;1879;45.876;12.300;2023-11-21T13:37:47;3.70;;;3.37;;
3726;SDS011;1879;45.876;12.300;2023-11-21T13:40:19;6.00;;;3.80;;
3726;SDS011;1879;45.876;12.300;2023-11-21T13:42:48;4.37;;;3.97;;
3726;SDS011;1879;45.876;12.300;2023-11-21T13:45:19;4.90;;;3.23;;
3726;SDS011;1879;45.876;12.300;2023-11-21T13:47:49;4.70;;;3.73;;
3726;SDS011;1879;45.876;12.300;2023-11-21T13:50:22;3.33;;;3.03;;
3726;SDS011;1879;45.876;12.300;2023-11-21T13:52:54;5.00;;;4.03;;
3726;SDS011;1879;45.876;12.300;2023-11-21T13:55:21;3.83;;;3.37;;
3726;SDS011;1879;45.876;12.300;2023-11-21T13:57:50;3.80;;;3.50;;
3726;SDS011;1879;45.876;12.300;2023-11-21T14:00:18;6.23;;;3.47;;
3726;SDS011;1879;45.876;12.300;2023-11-21T14:03:10;4.67;;;3.67;;
3726;SDS011;1879;45.876;12.300;2023-11-21T14:05:45;9.20;;;8.30;;
3726;SDS011;1879;45.876;12.300;2023-11-21T14:08:16;11.37;;;10.37;;
3726;SDS011;1879;45.876;12.300;2023-11-21T14:10:45;11.83;;;10.67;;
3726;SDS011;1879;45.876;12.300;2023-11-21T14:13:16;12.43;;;11.13;;
3726;SDS011;1879;45.876;12.300;2023-11-21T14:15:43;12.73;;;11.40;;
3726;SDS011;1879;45.876;12.300;2023-11-21T14:18:17;12.87;;;11.77;;
3726;SDS011;1879;45.876;12.300;2023-11-21T14:20:52;15.93;;;11.77;;
3726;SDS011;1879;45.876;12.300;2023-11-21T14:23:19;12.77;;;11.47;;
3726;SDS011;1879;45.876;12.300;2023-11-21T14:25:48;14.47;;;12.87;;
3726;SDS011;1879;45.876;12.300;2023-11-21T14:28:16;12.37;;;11.27;;
3726;SDS011;1879;45.876;12.300;2023-11-21T14:30:44;14.30;;;12.93;;
3726;SDS011;1879;45.876;12.300;2023-11-21T14:33:11;14.87;;;13.20;;
3726;SDS011;1879;45.876;12.300;2023-11-21T14:35:40;16.57;;;11.37;;
3726;SDS011;1879;45.876;12.300;2023-11-21T14:38:08;13.63;;;12.30;;
3726;SDS011;1879;45.876;12.300;2023-11-21T14:40:35;16.53;;;14.57;;
3726;SDS011;1879;45.876;12.300;2023-11-21T14:43:03;18.87;;;16.97;;
3726;SDS011;1879;45.876;12.300;2023-11-21T14:45:31;19.23;;;17.20;;
3726;SDS011;1879;45.876;12.300;2023-11-21T14:47:59;18.93;;;17.00;;
3726;SDS011;1879;45.876;12.300;2023-11-21T14:50:32;18.10;;;16.33;;